<?xml version="1.0" encoding="UTF-8" standalone="no" ?>
<gpx xmlns="http://www.topografix.com/GPX/1/1" xmlns:xsi="http://www.w3.org/2001/XMLSchema-instance" xsi:schemaLocation="http://www.topografix.com/GPX/1/1 http://www.topografix.com/GPX/1/1/gpx.xsd" version="1.1" creator="VisuGPX - https://www.visugpx.com">
  <metadata>
    <name>Etape 3: Saint-Florent-sur-Cher&gt; Selles-sur-Cher</name>
    <desc><![CDATA[tape 3: Saint-Florent-sur-Cher> Selles-sur-Cher
Vendredi 15 juin]]></desc>
  </metadata>
  <trk>
    <name><![CDATA[20180610203831-LJrq6]]></name>
    <trkseg>
      <trkpt lat="47.21975" lon="2.06035">
        <ele>98</ele>
        <time>2018-04-18T07:36:13Z</time>
      </trkpt>
      <trkpt lat="47.21975" lon="2.06034">
        <ele>98</ele>
        <time>2018-04-18T07:36:14Z</time>
      </trkpt>
      <trkpt lat="47.21975" lon="2.06034">
        <ele>98</ele>
        <time>2018-04-18T07:36:15Z</time>
      </trkpt>
      <trkpt lat="47.21975" lon="2.06034">
        <ele>98</ele>
        <time>2018-04-18T07:36:16Z</time>
      </trkpt>
      <trkpt lat="47.21976" lon="2.06034">
        <ele>98</ele>
        <time>2018-04-18T07:36:18Z</time>
      </trkpt>
      <trkpt lat="47.21974" lon="2.06031">
        <ele>98</ele>
        <time>2018-04-18T07:36:29Z</time>
      </trkpt>
      <trkpt lat="47.21973" lon="2.06029">
        <ele>98</ele>
        <time>2018-04-18T07:36:34Z</time>
      </trkpt>
      <trkpt lat="47.21973" lon="2.06028">
        <ele>98</ele>
        <time>2018-04-18T07:36:39Z</time>
      </trkpt>
      <trkpt lat="47.21973" lon="2.06028">
        <ele>98</ele>
        <time>2018-04-18T07:36:40Z</time>
      </trkpt>
      <trkpt lat="47.21973" lon="2.06028">
        <ele>98</ele>
        <time>2018-04-18T07:36:41Z</time>
      </trkpt>
      <trkpt lat="47.21973" lon="2.06028">
        <ele>98</ele>
        <time>2018-04-18T07:36:42Z</time>
      </trkpt>
      <trkpt lat="47.21973" lon="2.06028">
        <ele>98</ele>
        <time>2018-04-18T07:36:53Z</time>
      </trkpt>
      <trkpt lat="47.21972" lon="2.06028">
        <ele>98</ele>
        <time>2018-04-18T07:36:57Z</time>
      </trkpt>
      <trkpt lat="47.21971" lon="2.06027">
        <ele>98</ele>
        <time>2018-04-18T07:37:02Z</time>
      </trkpt>
      <trkpt lat="47.21969" lon="2.06022">
        <ele>98</ele>
        <time>2018-04-18T07:37:06Z</time>
      </trkpt>
      <trkpt lat="47.21971" lon="2.05994">
        <ele>98</ele>
        <time>2018-04-18T07:37:14Z</time>
      </trkpt>
      <trkpt lat="47.21971" lon="2.0598">
        <ele>97</ele>
        <time>2018-04-18T07:37:17Z</time>
      </trkpt>
      <trkpt lat="47.21972" lon="2.05973">
        <ele>97</ele>
        <time>2018-04-18T07:37:20Z</time>
      </trkpt>
      <trkpt lat="47.21972" lon="2.05973">
        <ele>97</ele>
        <time>2018-04-18T07:37:21Z</time>
      </trkpt>
      <trkpt lat="47.21972" lon="2.05972">
        <ele>97</ele>
        <time>2018-04-18T07:37:24Z</time>
      </trkpt>
      <trkpt lat="47.21973" lon="2.05972">
        <ele>97</ele>
        <time>2018-04-18T07:37:25Z</time>
      </trkpt>
      <trkpt lat="47.21973" lon="2.05971">
        <ele>97</ele>
        <time>2018-04-18T07:37:28Z</time>
      </trkpt>
      <trkpt lat="47.21973" lon="2.05966">
        <ele>97</ele>
        <time>2018-04-18T07:37:31Z</time>
      </trkpt>
      <trkpt lat="47.21979" lon="2.05942">
        <ele>97</ele>
        <time>2018-04-18T07:37:36Z</time>
      </trkpt>
      <trkpt lat="47.2198" lon="2.05929">
        <ele>97</ele>
        <time>2018-04-18T07:37:38Z</time>
      </trkpt>
      <trkpt lat="47.21979" lon="2.05915">
        <ele>97</ele>
        <time>2018-04-18T07:37:40Z</time>
      </trkpt>
      <trkpt lat="47.21975" lon="2.05901">
        <ele>97</ele>
        <time>2018-04-18T07:37:42Z</time>
      </trkpt>
      <trkpt lat="47.21965" lon="2.05877">
        <ele>96</ele>
        <time>2018-04-18T07:37:46Z</time>
      </trkpt>
      <trkpt lat="47.21964" lon="2.05856">
        <ele>96</ele>
        <time>2018-04-18T07:37:50Z</time>
      </trkpt>
      <trkpt lat="47.21961" lon="2.05803">
        <ele>97</ele>
        <time>2018-04-18T07:38:00Z</time>
      </trkpt>
      <trkpt lat="47.21965" lon="2.05777">
        <ele>97</ele>
        <time>2018-04-18T07:38:06Z</time>
      </trkpt>
      <trkpt lat="47.21965" lon="2.05771">
        <ele>97</ele>
        <time>2018-04-18T07:38:07Z</time>
      </trkpt>
      <trkpt lat="47.21969" lon="2.05702">
        <ele>98</ele>
        <time>2018-04-18T07:38:28Z</time>
      </trkpt>
      <trkpt lat="47.21971" lon="2.05664">
        <ele>97</ele>
        <time>2018-04-18T07:38:36Z</time>
      </trkpt>
      <trkpt lat="47.21977" lon="2.05591">
        <ele>96</ele>
        <time>2018-04-18T07:38:51Z</time>
      </trkpt>
      <trkpt lat="47.21977" lon="2.0557">
        <ele>96</ele>
        <time>2018-04-18T07:38:55Z</time>
      </trkpt>
      <trkpt lat="47.21975" lon="2.0555">
        <ele>96</ele>
        <time>2018-04-18T07:38:59Z</time>
      </trkpt>
      <trkpt lat="47.21972" lon="2.05542">
        <ele>96</ele>
        <time>2018-04-18T07:39:00Z</time>
      </trkpt>
      <trkpt lat="47.21969" lon="2.05528">
        <ele>96</ele>
        <time>2018-04-18T07:39:02Z</time>
      </trkpt>
      <trkpt lat="47.21959" lon="2.05485">
        <ele>97</ele>
        <time>2018-04-18T07:39:09Z</time>
      </trkpt>
      <trkpt lat="47.21956" lon="2.05461">
        <ele>97</ele>
        <time>2018-04-18T07:39:13Z</time>
      </trkpt>
      <trkpt lat="47.21944" lon="2.05378">
        <ele>97</ele>
        <time>2018-04-18T07:39:28Z</time>
      </trkpt>
      <trkpt lat="47.21939" lon="2.0535">
        <ele>97</ele>
        <time>2018-04-18T07:39:32Z</time>
      </trkpt>
      <trkpt lat="47.21927" lon="2.05271">
        <ele>97</ele>
        <time>2018-04-18T07:39:45Z</time>
      </trkpt>
      <trkpt lat="47.21907" lon="2.05198">
        <ele>97</ele>
        <time>2018-04-18T07:39:58Z</time>
      </trkpt>
      <trkpt lat="47.21902" lon="2.05186">
        <ele>97</ele>
        <time>2018-04-18T07:40:00Z</time>
      </trkpt>
      <trkpt lat="47.21899" lon="2.05173">
        <ele>98</ele>
        <time>2018-04-18T07:40:02Z</time>
      </trkpt>
      <trkpt lat="47.21874" lon="2.05128">
        <ele>97</ele>
        <time>2018-04-18T07:40:14Z</time>
      </trkpt>
      <trkpt lat="47.21844" lon="2.05061">
        <ele>98</ele>
        <time>2018-04-18T07:40:28Z</time>
      </trkpt>
      <trkpt lat="47.21817" lon="2.04989">
        <ele>97</ele>
        <time>2018-04-18T07:40:44Z</time>
      </trkpt>
      <trkpt lat="47.21811" lon="2.04966">
        <ele>97</ele>
        <time>2018-04-18T07:40:48Z</time>
      </trkpt>
      <trkpt lat="47.21809" lon="2.04954">
        <ele>97</ele>
        <time>2018-04-18T07:40:50Z</time>
      </trkpt>
      <trkpt lat="47.21801" lon="2.0492">
        <ele>97</ele>
        <time>2018-04-18T07:40:56Z</time>
      </trkpt>
      <trkpt lat="47.21791" lon="2.04868">
        <ele>96</ele>
        <time>2018-04-18T07:41:05Z</time>
      </trkpt>
      <trkpt lat="47.21792" lon="2.04818">
        <ele>96</ele>
        <time>2018-04-18T07:41:13Z</time>
      </trkpt>
      <trkpt lat="47.21791" lon="2.0479">
        <ele>96</ele>
        <time>2018-04-18T07:41:17Z</time>
      </trkpt>
      <trkpt lat="47.21785" lon="2.0471">
        <ele>96</ele>
        <time>2018-04-18T07:41:29Z</time>
      </trkpt>
      <trkpt lat="47.21778" lon="2.04633">
        <ele>98</ele>
        <time>2018-04-18T07:41:41Z</time>
      </trkpt>
      <trkpt lat="47.2178" lon="2.04587">
        <ele>98</ele>
        <time>2018-04-18T07:41:49Z</time>
      </trkpt>
      <trkpt lat="47.21781" lon="2.04575">
        <ele>99</ele>
        <time>2018-04-18T07:41:51Z</time>
      </trkpt>
      <trkpt lat="47.21792" lon="2.04512">
        <ele>99</ele>
        <time>2018-04-18T07:42:03Z</time>
      </trkpt>
      <trkpt lat="47.21809" lon="2.04472">
        <ele>99</ele>
        <time>2018-04-18T07:42:12Z</time>
      </trkpt>
      <trkpt lat="47.21817" lon="2.04452">
        <ele>99</ele>
        <time>2018-04-18T07:42:16Z</time>
      </trkpt>
      <trkpt lat="47.21846" lon="2.04382">
        <ele>98</ele>
        <time>2018-04-18T07:42:29Z</time>
      </trkpt>
      <trkpt lat="47.21882" lon="2.04316">
        <ele>98</ele>
        <time>2018-04-18T07:42:42Z</time>
      </trkpt>
      <trkpt lat="47.21919" lon="2.04253">
        <ele>98</ele>
        <time>2018-04-18T07:42:57Z</time>
      </trkpt>
      <trkpt lat="47.21947" lon="2.04205">
        <ele>98</ele>
        <time>2018-04-18T07:43:06Z</time>
      </trkpt>
      <trkpt lat="47.21974" lon="2.04165">
        <ele>97</ele>
        <time>2018-04-18T07:43:15Z</time>
      </trkpt>
      <trkpt lat="47.21981" lon="2.0416">
        <ele>97</ele>
        <time>2018-04-18T07:43:17Z</time>
      </trkpt>
      <trkpt lat="47.21989" lon="2.04157">
        <ele>97</ele>
        <time>2018-04-18T07:43:19Z</time>
      </trkpt>
      <trkpt lat="47.22044" lon="2.04159">
        <ele>96</ele>
        <time>2018-04-18T07:43:33Z</time>
      </trkpt>
      <trkpt lat="47.22056" lon="2.04163">
        <ele>95</ele>
        <time>2018-04-18T07:43:39Z</time>
      </trkpt>
      <trkpt lat="47.2206" lon="2.0416">
        <ele>95</ele>
        <time>2018-04-18T07:43:48Z</time>
      </trkpt>
      <trkpt lat="47.22059" lon="2.04161">
        <ele>95</ele>
        <time>2018-04-18T07:44:27Z</time>
      </trkpt>
      <trkpt lat="47.22059" lon="2.04161">
        <ele>95</ele>
        <time>2018-04-18T07:44:31Z</time>
      </trkpt>
      <trkpt lat="47.22059" lon="2.04161">
        <ele>95</ele>
        <time>2018-04-18T07:44:48Z</time>
      </trkpt>
      <trkpt lat="47.22059" lon="2.04161">
        <ele>95</ele>
        <time>2018-04-18T07:44:56Z</time>
      </trkpt>
      <trkpt lat="47.22059" lon="2.04161">
        <ele>95</ele>
        <time>2018-04-18T07:45:03Z</time>
      </trkpt>
      <trkpt lat="47.22059" lon="2.04162">
        <ele>95</ele>
        <time>2018-04-18T07:45:13Z</time>
      </trkpt>
      <trkpt lat="47.22058" lon="2.04162">
        <ele>95</ele>
        <time>2018-04-18T07:45:24Z</time>
      </trkpt>
      <trkpt lat="47.22058" lon="2.04162">
        <ele>95</ele>
        <time>2018-04-18T07:45:25Z</time>
      </trkpt>
      <trkpt lat="47.22057" lon="2.04162">
        <ele>95</ele>
        <time>2018-04-18T07:45:26Z</time>
      </trkpt>
      <trkpt lat="47.22057" lon="2.04163">
        <ele>95</ele>
        <time>2018-04-18T07:45:27Z</time>
      </trkpt>
      <trkpt lat="47.22057" lon="2.04163">
        <ele>95</ele>
        <time>2018-04-18T07:45:31Z</time>
      </trkpt>
      <trkpt lat="47.22057" lon="2.04163">
        <ele>95</ele>
        <time>2018-04-18T07:45:33Z</time>
      </trkpt>
      <trkpt lat="47.22057" lon="2.04163">
        <ele>95</ele>
        <time>2018-04-18T07:45:34Z</time>
      </trkpt>
      <trkpt lat="47.22057" lon="2.04163">
        <ele>95</ele>
        <time>2018-04-18T07:45:35Z</time>
      </trkpt>
      <trkpt lat="47.22057" lon="2.04163">
        <ele>95</ele>
        <time>2018-04-18T07:45:36Z</time>
      </trkpt>
      <trkpt lat="47.22057" lon="2.04163">
        <ele>95</ele>
        <time>2018-04-18T07:45:39Z</time>
      </trkpt>
      <trkpt lat="47.22057" lon="2.04165">
        <ele>95</ele>
        <time>2018-04-18T07:45:52Z</time>
      </trkpt>
      <trkpt lat="47.22057" lon="2.04165">
        <ele>95</ele>
        <time>2018-04-18T07:46:03Z</time>
      </trkpt>
      <trkpt lat="47.22057" lon="2.04165">
        <ele>95</ele>
        <time>2018-04-18T07:46:11Z</time>
      </trkpt>
      <trkpt lat="47.22057" lon="2.04165">
        <ele>95</ele>
        <time>2018-04-18T07:46:23Z</time>
      </trkpt>
      <trkpt lat="47.22057" lon="2.04165">
        <ele>95</ele>
        <time>2018-04-18T07:46:37Z</time>
      </trkpt>
      <trkpt lat="47.22058" lon="2.04165">
        <ele>95</ele>
        <time>2018-04-18T07:46:40Z</time>
      </trkpt>
      <trkpt lat="47.22065" lon="2.04164">
        <ele>95</ele>
        <time>2018-04-18T07:46:44Z</time>
      </trkpt>
      <trkpt lat="47.22078" lon="2.04118">
        <ele>95</ele>
        <time>2018-04-18T07:46:53Z</time>
      </trkpt>
      <trkpt lat="47.22086" lon="2.04034">
        <ele>95</ele>
        <time>2018-04-18T07:47:04Z</time>
      </trkpt>
      <trkpt lat="47.22089" lon="2.03967">
        <ele>95</ele>
        <time>2018-04-18T07:47:14Z</time>
      </trkpt>
      <trkpt lat="47.2209" lon="2.03961">
        <ele>95</ele>
        <time>2018-04-18T07:47:15Z</time>
      </trkpt>
      <trkpt lat="47.22091" lon="2.03937">
        <ele>96</ele>
        <time>2018-04-18T07:47:19Z</time>
      </trkpt>
      <trkpt lat="47.22092" lon="2.03925">
        <ele>96</ele>
        <time>2018-04-18T07:47:21Z</time>
      </trkpt>
      <trkpt lat="47.22092" lon="2.03919">
        <ele>96</ele>
        <time>2018-04-18T07:47:22Z</time>
      </trkpt>
      <trkpt lat="47.22093" lon="2.03913">
        <ele>96</ele>
        <time>2018-04-18T07:47:23Z</time>
      </trkpt>
      <trkpt lat="47.22093" lon="2.039">
        <ele>96</ele>
        <time>2018-04-18T07:47:25Z</time>
      </trkpt>
      <trkpt lat="47.22095" lon="2.03887">
        <ele>96</ele>
        <time>2018-04-18T07:47:27Z</time>
      </trkpt>
      <trkpt lat="47.22098" lon="2.03846">
        <ele>96</ele>
        <time>2018-04-18T07:47:33Z</time>
      </trkpt>
      <trkpt lat="47.22099" lon="2.03839">
        <ele>96</ele>
        <time>2018-04-18T07:47:34Z</time>
      </trkpt>
      <trkpt lat="47.22102" lon="2.03825">
        <ele>95</ele>
        <time>2018-04-18T07:47:36Z</time>
      </trkpt>
      <trkpt lat="47.22109" lon="2.03799">
        <ele>95</ele>
        <time>2018-04-18T07:47:40Z</time>
      </trkpt>
      <trkpt lat="47.22124" lon="2.03749">
        <ele>94</ele>
        <time>2018-04-18T07:47:48Z</time>
      </trkpt>
      <trkpt lat="47.22126" lon="2.03742">
        <ele>94</ele>
        <time>2018-04-18T07:47:49Z</time>
      </trkpt>
      <trkpt lat="47.22139" lon="2.03692">
        <ele>95</ele>
        <time>2018-04-18T07:47:56Z</time>
      </trkpt>
      <trkpt lat="47.22141" lon="2.03686">
        <ele>95</ele>
        <time>2018-04-18T07:47:57Z</time>
      </trkpt>
      <trkpt lat="47.22144" lon="2.03672">
        <ele>95</ele>
        <time>2018-04-18T07:47:59Z</time>
      </trkpt>
      <trkpt lat="47.22148" lon="2.03659">
        <ele>96</ele>
        <time>2018-04-18T07:48:01Z</time>
      </trkpt>
      <trkpt lat="47.22152" lon="2.03646">
        <ele>96</ele>
        <time>2018-04-18T07:48:03Z</time>
      </trkpt>
      <trkpt lat="47.22157" lon="2.03627">
        <ele>96</ele>
        <time>2018-04-18T07:48:06Z</time>
      </trkpt>
      <trkpt lat="47.22165" lon="2.036">
        <ele>96</ele>
        <time>2018-04-18T07:48:10Z</time>
      </trkpt>
      <trkpt lat="47.22167" lon="2.03593">
        <ele>96</ele>
        <time>2018-04-18T07:48:11Z</time>
      </trkpt>
      <trkpt lat="47.22169" lon="2.03586">
        <ele>96</ele>
        <time>2018-04-18T07:48:12Z</time>
      </trkpt>
      <trkpt lat="47.22173" lon="2.03573">
        <ele>96</ele>
        <time>2018-04-18T07:48:14Z</time>
      </trkpt>
      <trkpt lat="47.22175" lon="2.03566">
        <ele>96</ele>
        <time>2018-04-18T07:48:15Z</time>
      </trkpt>
      <trkpt lat="47.22177" lon="2.03559">
        <ele>97</ele>
        <time>2018-04-18T07:48:16Z</time>
      </trkpt>
      <trkpt lat="47.22179" lon="2.03553">
        <ele>97</ele>
        <time>2018-04-18T07:48:17Z</time>
      </trkpt>
      <trkpt lat="47.22183" lon="2.03539">
        <ele>97</ele>
        <time>2018-04-18T07:48:19Z</time>
      </trkpt>
      <trkpt lat="47.22199" lon="2.03485">
        <ele>96</ele>
        <time>2018-04-18T07:48:27Z</time>
      </trkpt>
      <trkpt lat="47.22221" lon="2.0341">
        <ele>96</ele>
        <time>2018-04-18T07:48:38Z</time>
      </trkpt>
      <trkpt lat="47.22244" lon="2.03333">
        <ele>96</ele>
        <time>2018-04-18T07:48:49Z</time>
      </trkpt>
      <trkpt lat="47.22248" lon="2.03319">
        <ele>96</ele>
        <time>2018-04-18T07:48:51Z</time>
      </trkpt>
      <trkpt lat="47.22266" lon="2.03256">
        <ele>96</ele>
        <time>2018-04-18T07:49:00Z</time>
      </trkpt>
      <trkpt lat="47.2227" lon="2.03242">
        <ele>96</ele>
        <time>2018-04-18T07:49:02Z</time>
      </trkpt>
      <trkpt lat="47.22278" lon="2.03214">
        <ele>96</ele>
        <time>2018-04-18T07:49:06Z</time>
      </trkpt>
      <trkpt lat="47.22298" lon="2.03145">
        <ele>96</ele>
        <time>2018-04-18T07:49:16Z</time>
      </trkpt>
      <trkpt lat="47.22302" lon="2.03131">
        <ele>95</ele>
        <time>2018-04-18T07:49:18Z</time>
      </trkpt>
      <trkpt lat="47.22317" lon="2.03077">
        <ele>94</ele>
        <time>2018-04-18T07:49:27Z</time>
      </trkpt>
      <trkpt lat="47.22332" lon="2.03021">
        <ele>94</ele>
        <time>2018-04-18T07:49:41Z</time>
      </trkpt>
      <trkpt lat="47.22336" lon="2.02942">
        <ele>95</ele>
        <time>2018-04-18T07:49:59Z</time>
      </trkpt>
      <trkpt lat="47.22334" lon="2.02919">
        <ele>94</ele>
        <time>2018-04-18T07:50:03Z</time>
      </trkpt>
      <trkpt lat="47.22322" lon="2.02875">
        <ele>95</ele>
        <time>2018-04-18T07:50:10Z</time>
      </trkpt>
      <trkpt lat="47.22297" lon="2.02799">
        <ele>96</ele>
        <time>2018-04-18T07:50:23Z</time>
      </trkpt>
      <trkpt lat="47.22284" lon="2.02745">
        <ele>96</ele>
        <time>2018-04-18T07:50:31Z</time>
      </trkpt>
      <trkpt lat="47.22283" lon="2.02737">
        <ele>96</ele>
        <time>2018-04-18T07:50:32Z</time>
      </trkpt>
      <trkpt lat="47.22283" lon="2.02706">
        <ele>96</ele>
        <time>2018-04-18T07:50:36Z</time>
      </trkpt>
      <trkpt lat="47.22285" lon="2.02684">
        <ele>96</ele>
        <time>2018-04-18T07:50:39Z</time>
      </trkpt>
      <trkpt lat="47.22289" lon="2.02641">
        <ele>96</ele>
        <time>2018-04-18T07:50:45Z</time>
      </trkpt>
      <trkpt lat="47.22298" lon="2.02556">
        <ele>96</ele>
        <time>2018-04-18T07:50:57Z</time>
      </trkpt>
      <trkpt lat="47.22309" lon="2.02472">
        <ele>96</ele>
        <time>2018-04-18T07:51:09Z</time>
      </trkpt>
      <trkpt lat="47.22309" lon="2.02459">
        <ele>96</ele>
        <time>2018-04-18T07:51:11Z</time>
      </trkpt>
      <trkpt lat="47.22307" lon="2.02439">
        <ele>96</ele>
        <time>2018-04-18T07:51:14Z</time>
      </trkpt>
      <trkpt lat="47.22301" lon="2.02411">
        <ele>96</ele>
        <time>2018-04-18T07:51:18Z</time>
      </trkpt>
      <trkpt lat="47.22293" lon="2.02394">
        <ele>96</ele>
        <time>2018-04-18T07:51:21Z</time>
      </trkpt>
      <trkpt lat="47.22253" lon="2.02333">
        <ele>97</ele>
        <time>2018-04-18T07:51:32Z</time>
      </trkpt>
      <trkpt lat="47.22213" lon="2.02282">
        <ele>96</ele>
        <time>2018-04-18T07:51:42Z</time>
      </trkpt>
      <trkpt lat="47.22204" lon="2.02262">
        <ele>96</ele>
        <time>2018-04-18T07:51:45Z</time>
      </trkpt>
      <trkpt lat="47.22177" lon="2.02186">
        <ele>96</ele>
        <time>2018-04-18T07:51:57Z</time>
      </trkpt>
      <trkpt lat="47.22145" lon="2.02116">
        <ele>95</ele>
        <time>2018-04-18T07:52:08Z</time>
      </trkpt>
      <trkpt lat="47.22143" lon="2.0211">
        <ele>95</ele>
        <time>2018-04-18T07:52:09Z</time>
      </trkpt>
      <trkpt lat="47.2214" lon="2.02104">
        <ele>95</ele>
        <time>2018-04-18T07:52:10Z</time>
      </trkpt>
      <trkpt lat="47.22138" lon="2.02098">
        <ele>95</ele>
        <time>2018-04-18T07:52:11Z</time>
      </trkpt>
      <trkpt lat="47.22135" lon="2.02092">
        <ele>95</ele>
        <time>2018-04-18T07:52:12Z</time>
      </trkpt>
      <trkpt lat="47.22127" lon="2.02074">
        <ele>95</ele>
        <time>2018-04-18T07:52:15Z</time>
      </trkpt>
      <trkpt lat="47.22109" lon="2.02022">
        <ele>96</ele>
        <time>2018-04-18T07:52:23Z</time>
      </trkpt>
      <trkpt lat="47.22096" lon="2.01971">
        <ele>96</ele>
        <time>2018-04-18T07:52:30Z</time>
      </trkpt>
      <trkpt lat="47.22087" lon="2.01931">
        <ele>97</ele>
        <time>2018-04-18T07:52:38Z</time>
      </trkpt>
      <trkpt lat="47.2208" lon="2.01909">
        <ele>97</ele>
        <time>2018-04-18T07:52:43Z</time>
      </trkpt>
      <trkpt lat="47.22076" lon="2.01886">
        <ele>97</ele>
        <time>2018-04-18T07:52:47Z</time>
      </trkpt>
      <trkpt lat="47.22065" lon="2.01837">
        <ele>96</ele>
        <time>2018-04-18T07:52:55Z</time>
      </trkpt>
      <trkpt lat="47.22045" lon="2.0176">
        <ele>96</ele>
        <time>2018-04-18T07:53:07Z</time>
      </trkpt>
      <trkpt lat="47.22042" lon="2.01711">
        <ele>96</ele>
        <time>2018-04-18T07:53:14Z</time>
      </trkpt>
      <trkpt lat="47.22035" lon="2.01658">
        <ele>96</ele>
        <time>2018-04-18T07:53:22Z</time>
      </trkpt>
      <trkpt lat="47.22022" lon="2.01611">
        <ele>96</ele>
        <time>2018-04-18T07:53:29Z</time>
      </trkpt>
      <trkpt lat="47.22006" lon="2.0156">
        <ele>95</ele>
        <time>2018-04-18T07:53:37Z</time>
      </trkpt>
      <trkpt lat="47.21968" lon="2.01497">
        <ele>96</ele>
        <time>2018-04-18T07:53:49Z</time>
      </trkpt>
      <trkpt lat="47.21925" lon="2.0144">
        <ele>96</ele>
        <time>2018-04-18T07:54:01Z</time>
      </trkpt>
      <trkpt lat="47.21902" lon="2.01398">
        <ele>96</ele>
        <time>2018-04-18T07:54:09Z</time>
      </trkpt>
      <trkpt lat="47.21892" lon="2.01371">
        <ele>96</ele>
        <time>2018-04-18T07:54:14Z</time>
      </trkpt>
      <trkpt lat="47.21875" lon="2.01307">
        <ele>96</ele>
        <time>2018-04-18T07:54:25Z</time>
      </trkpt>
      <trkpt lat="47.21868" lon="2.01298">
        <ele>96</ele>
        <time>2018-04-18T07:54:27Z</time>
      </trkpt>
      <trkpt lat="47.21858" lon="2.0128">
        <ele>96</ele>
        <time>2018-04-18T07:54:31Z</time>
      </trkpt>
      <trkpt lat="47.21839" lon="2.01204">
        <ele>95</ele>
        <time>2018-04-18T07:54:47Z</time>
      </trkpt>
      <trkpt lat="47.21845" lon="2.0112">
        <ele>95</ele>
        <time>2018-04-18T07:55:01Z</time>
      </trkpt>
      <trkpt lat="47.21847" lon="2.01093">
        <ele>95</ele>
        <time>2018-04-18T07:55:05Z</time>
      </trkpt>
      <trkpt lat="47.21837" lon="2.01013">
        <ele>96</ele>
        <time>2018-04-18T07:55:18Z</time>
      </trkpt>
      <trkpt lat="47.21818" lon="2.00958">
        <ele>95</ele>
        <time>2018-04-18T07:55:27Z</time>
      </trkpt>
      <trkpt lat="47.21807" lon="2.00925">
        <ele>95</ele>
        <time>2018-04-18T07:55:32Z</time>
      </trkpt>
      <trkpt lat="47.218" lon="2.00842">
        <ele>94</ele>
        <time>2018-04-18T07:55:44Z</time>
      </trkpt>
      <trkpt lat="47.218" lon="2.00822">
        <ele>94</ele>
        <time>2018-04-18T07:55:47Z</time>
      </trkpt>
      <trkpt lat="47.21805" lon="2.00775">
        <ele>94</ele>
        <time>2018-04-18T07:55:54Z</time>
      </trkpt>
      <trkpt lat="47.21816" lon="2.00692">
        <ele>95</ele>
        <time>2018-04-18T07:56:07Z</time>
      </trkpt>
      <trkpt lat="47.21814" lon="2.00622">
        <ele>96</ele>
        <time>2018-04-18T07:56:17Z</time>
      </trkpt>
      <trkpt lat="47.21816" lon="2.00608">
        <ele>96</ele>
        <time>2018-04-18T07:56:19Z</time>
      </trkpt>
      <trkpt lat="47.21823" lon="2.00582">
        <ele>96</ele>
        <time>2018-04-18T07:56:23Z</time>
      </trkpt>
      <trkpt lat="47.21852" lon="2.00512">
        <ele>96</ele>
        <time>2018-04-18T07:56:35Z</time>
      </trkpt>
      <trkpt lat="47.21854" lon="2.00507">
        <ele>96</ele>
        <time>2018-04-18T07:56:36Z</time>
      </trkpt>
      <trkpt lat="47.2186" lon="2.00496">
        <ele>96</ele>
        <time>2018-04-18T07:56:38Z</time>
      </trkpt>
      <trkpt lat="47.2187" lon="2.00484">
        <ele>95</ele>
        <time>2018-04-18T07:56:41Z</time>
      </trkpt>
      <trkpt lat="47.21877" lon="2.00477">
        <ele>95</ele>
        <time>2018-04-18T07:56:43Z</time>
      </trkpt>
      <trkpt lat="47.21916" lon="2.00423">
        <ele>94</ele>
        <time>2018-04-18T07:56:59Z</time>
      </trkpt>
      <trkpt lat="47.21932" lon="2.00353">
        <ele>94</ele>
        <time>2018-04-18T07:57:12Z</time>
      </trkpt>
      <trkpt lat="47.21938" lon="2.00344">
        <ele>95</ele>
        <time>2018-04-18T07:57:14Z</time>
      </trkpt>
      <trkpt lat="47.21946" lon="2.00338">
        <ele>94</ele>
        <time>2018-04-18T07:57:16Z</time>
      </trkpt>
      <trkpt lat="47.21969" lon="2.00327">
        <ele>94</ele>
        <time>2018-04-18T07:57:22Z</time>
      </trkpt>
      <trkpt lat="47.22011" lon="2.00305">
        <ele>94</ele>
        <time>2018-04-18T07:57:32Z</time>
      </trkpt>
      <trkpt lat="47.22018" lon="2.00296">
        <ele>95</ele>
        <time>2018-04-18T07:57:34Z</time>
      </trkpt>
      <trkpt lat="47.22035" lon="2.00273">
        <ele>95</ele>
        <time>2018-04-18T07:57:39Z</time>
      </trkpt>
      <trkpt lat="47.22042" lon="2.00267">
        <ele>95</ele>
        <time>2018-04-18T07:57:41Z</time>
      </trkpt>
      <trkpt lat="47.22051" lon="2.00268">
        <ele>95</ele>
        <time>2018-04-18T07:57:43Z</time>
      </trkpt>
      <trkpt lat="47.22055" lon="2.00269">
        <ele>95</ele>
        <time>2018-04-18T07:57:44Z</time>
      </trkpt>
      <trkpt lat="47.22063" lon="2.00274">
        <ele>95</ele>
        <time>2018-04-18T07:57:46Z</time>
      </trkpt>
      <trkpt lat="47.22067" lon="2.00277">
        <ele>95</ele>
        <time>2018-04-18T07:57:47Z</time>
      </trkpt>
      <trkpt lat="47.22122" lon="2.00308">
        <ele>95</ele>
        <time>2018-04-18T07:58:00Z</time>
      </trkpt>
      <trkpt lat="47.22148" lon="2.00321">
        <ele>94</ele>
        <time>2018-04-18T07:58:06Z</time>
      </trkpt>
      <trkpt lat="47.22161" lon="2.00324">
        <ele>94</ele>
        <time>2018-04-18T07:58:09Z</time>
      </trkpt>
      <trkpt lat="47.22166" lon="2.00326">
        <ele>94</ele>
        <time>2018-04-18T07:58:10Z</time>
      </trkpt>
      <trkpt lat="47.22197" lon="2.00346">
        <ele>94</ele>
        <time>2018-04-18T07:58:18Z</time>
      </trkpt>
      <trkpt lat="47.22201" lon="2.00348">
        <ele>94</ele>
        <time>2018-04-18T07:58:19Z</time>
      </trkpt>
      <trkpt lat="47.22205" lon="2.00351">
        <ele>94</ele>
        <time>2018-04-18T07:58:20Z</time>
      </trkpt>
      <trkpt lat="47.2222" lon="2.0036">
        <ele>94</ele>
        <time>2018-04-18T07:58:24Z</time>
      </trkpt>
      <trkpt lat="47.2226" lon="2.00385">
        <ele>94</ele>
        <time>2018-04-18T07:58:52Z</time>
      </trkpt>
      <trkpt lat="47.2226" lon="2.00386">
        <ele>94</ele>
        <time>2018-04-18T07:59:03Z</time>
      </trkpt>
      <trkpt lat="47.2226" lon="2.00386">
        <ele>94</ele>
        <time>2018-04-18T07:59:04Z</time>
      </trkpt>
      <trkpt lat="47.2226" lon="2.00385">
        <ele>94</ele>
        <time>2018-04-18T07:59:07Z</time>
      </trkpt>
      <trkpt lat="47.2226" lon="2.00385">
        <ele>94</ele>
        <time>2018-04-18T07:59:08Z</time>
      </trkpt>
      <trkpt lat="47.2226" lon="2.00385">
        <ele>94</ele>
        <time>2018-04-18T07:59:09Z</time>
      </trkpt>
      <trkpt lat="47.2226" lon="2.00385">
        <ele>94</ele>
        <time>2018-04-18T07:59:10Z</time>
      </trkpt>
      <trkpt lat="47.22259" lon="2.00386">
        <ele>94</ele>
        <time>2018-04-18T07:59:17Z</time>
      </trkpt>
      <trkpt lat="47.22258" lon="2.0039">
        <ele>94</ele>
        <time>2018-04-18T07:59:20Z</time>
      </trkpt>
      <trkpt lat="47.22275" lon="2.00452">
        <ele>94</ele>
        <time>2018-04-18T07:59:35Z</time>
      </trkpt>
      <trkpt lat="47.22279" lon="2.00455">
        <ele>94</ele>
        <time>2018-04-18T07:59:36Z</time>
      </trkpt>
      <trkpt lat="47.22284" lon="2.00458">
        <ele>94</ele>
        <time>2018-04-18T07:59:37Z</time>
      </trkpt>
      <trkpt lat="47.22297" lon="2.00465">
        <ele>94</ele>
        <time>2018-04-18T07:59:40Z</time>
      </trkpt>
      <trkpt lat="47.22301" lon="2.00467">
        <ele>94</ele>
        <time>2018-04-18T07:59:41Z</time>
      </trkpt>
      <trkpt lat="47.22306" lon="2.0047">
        <ele>94</ele>
        <time>2018-04-18T07:59:42Z</time>
      </trkpt>
      <trkpt lat="47.22338" lon="2.00488">
        <ele>94</ele>
        <time>2018-04-18T07:59:49Z</time>
      </trkpt>
      <trkpt lat="47.22347" lon="2.00495">
        <ele>94</ele>
        <time>2018-04-18T07:59:51Z</time>
      </trkpt>
      <trkpt lat="47.22364" lon="2.00519">
        <ele>94</ele>
        <time>2018-04-18T07:59:56Z</time>
      </trkpt>
      <trkpt lat="47.22368" lon="2.00532">
        <ele>94</ele>
        <time>2018-04-18T07:59:58Z</time>
      </trkpt>
      <trkpt lat="47.2238" lon="2.00582">
        <ele>94</ele>
        <time>2018-04-18T08:00:05Z</time>
      </trkpt>
      <trkpt lat="47.22408" lon="2.00651">
        <ele>95</ele>
        <time>2018-04-18T08:00:17Z</time>
      </trkpt>
      <trkpt lat="47.22429" lon="2.00726">
        <ele>95</ele>
        <time>2018-04-18T08:00:29Z</time>
      </trkpt>
      <trkpt lat="47.22444" lon="2.00807">
        <ele>95</ele>
        <time>2018-04-18T08:00:41Z</time>
      </trkpt>
      <trkpt lat="47.22449" lon="2.00843">
        <ele>95</ele>
        <time>2018-04-18T08:00:46Z</time>
      </trkpt>
      <trkpt lat="47.22478" lon="2.00914">
        <ele>94</ele>
        <time>2018-04-18T08:00:58Z</time>
      </trkpt>
      <trkpt lat="47.22488" lon="2.00937">
        <ele>94</ele>
        <time>2018-04-18T08:01:02Z</time>
      </trkpt>
      <trkpt lat="47.22494" lon="2.00947">
        <ele>94</ele>
        <time>2018-04-18T08:01:04Z</time>
      </trkpt>
      <trkpt lat="47.22506" lon="2.00959">
        <ele>95</ele>
        <time>2018-04-18T08:01:07Z</time>
      </trkpt>
      <trkpt lat="47.22532" lon="2.00981">
        <ele>95</ele>
        <time>2018-04-18T08:01:13Z</time>
      </trkpt>
      <trkpt lat="47.22578" lon="2.01029">
        <ele>95</ele>
        <time>2018-04-18T08:01:25Z</time>
      </trkpt>
      <trkpt lat="47.2262" lon="2.01081">
        <ele>95</ele>
        <time>2018-04-18T08:01:36Z</time>
      </trkpt>
      <trkpt lat="47.22629" lon="2.01097">
        <ele>95</ele>
        <time>2018-04-18T08:01:39Z</time>
      </trkpt>
      <trkpt lat="47.22637" lon="2.01104">
        <ele>95</ele>
        <time>2018-04-18T08:01:41Z</time>
      </trkpt>
      <trkpt lat="47.22687" lon="2.01135">
        <ele>95</ele>
        <time>2018-04-18T08:01:53Z</time>
      </trkpt>
      <trkpt lat="47.22733" lon="2.01188">
        <ele>94</ele>
        <time>2018-04-18T08:02:05Z</time>
      </trkpt>
      <trkpt lat="47.2277" lon="2.01249">
        <ele>95</ele>
        <time>2018-04-18T08:02:16Z</time>
      </trkpt>
      <trkpt lat="47.22807" lon="2.01311">
        <ele>94</ele>
        <time>2018-04-18T08:02:27Z</time>
      </trkpt>
      <trkpt lat="47.2285" lon="2.01363">
        <ele>94</ele>
        <time>2018-04-18T08:02:40Z</time>
      </trkpt>
      <trkpt lat="47.22854" lon="2.01366">
        <ele>94</ele>
        <time>2018-04-18T08:02:42Z</time>
      </trkpt>
      <trkpt lat="47.22859" lon="2.01361">
        <ele>94</ele>
        <time>2018-04-18T08:02:45Z</time>
      </trkpt>
      <trkpt lat="47.22861" lon="2.01278">
        <ele>95</ele>
        <time>2018-04-18T08:03:00Z</time>
      </trkpt>
      <trkpt lat="47.22864" lon="2.01195">
        <ele>95</ele>
        <time>2018-04-18T08:03:14Z</time>
      </trkpt>
      <trkpt lat="47.22865" lon="2.0117">
        <ele>95</ele>
        <time>2018-04-18T08:03:18Z</time>
      </trkpt>
      <trkpt lat="47.22866" lon="2.01146">
        <ele>94</ele>
        <time>2018-04-18T08:03:22Z</time>
      </trkpt>
      <trkpt lat="47.22868" lon="2.01064">
        <ele>94</ele>
        <time>2018-04-18T08:03:35Z</time>
      </trkpt>
      <trkpt lat="47.22869" lon="2.01031">
        <ele>94</ele>
        <time>2018-04-18T08:03:40Z</time>
      </trkpt>
      <trkpt lat="47.22869" lon="2.01011">
        <ele>94</ele>
        <time>2018-04-18T08:03:43Z</time>
      </trkpt>
      <trkpt lat="47.2287" lon="2.01005">
        <ele>94</ele>
        <time>2018-04-18T08:03:44Z</time>
      </trkpt>
      <trkpt lat="47.22873" lon="2.00925">
        <ele>94</ele>
        <time>2018-04-18T08:03:56Z</time>
      </trkpt>
      <trkpt lat="47.22876" lon="2.00843">
        <ele>95</ele>
        <time>2018-04-18T08:04:08Z</time>
      </trkpt>
      <trkpt lat="47.22877" lon="2.00808">
        <ele>95</ele>
        <time>2018-04-18T08:04:13Z</time>
      </trkpt>
      <trkpt lat="47.22878" lon="2.00774">
        <ele>95</ele>
        <time>2018-04-18T08:04:18Z</time>
      </trkpt>
      <trkpt lat="47.22878" lon="2.00767">
        <ele>95</ele>
        <time>2018-04-18T08:04:19Z</time>
      </trkpt>
      <trkpt lat="47.22881" lon="2.00688">
        <ele>95</ele>
        <time>2018-04-18T08:04:31Z</time>
      </trkpt>
      <trkpt lat="47.22884" lon="2.00609">
        <ele>94</ele>
        <time>2018-04-18T08:04:43Z</time>
      </trkpt>
      <trkpt lat="47.22884" lon="2.00552">
        <ele>94</ele>
        <time>2018-04-18T08:04:54Z</time>
      </trkpt>
      <trkpt lat="47.22834" lon="2.00576">
        <ele>95</ele>
        <time>2018-04-18T08:05:09Z</time>
      </trkpt>
      <trkpt lat="47.22824" lon="2.00584">
        <ele>95</ele>
        <time>2018-04-18T08:05:12Z</time>
      </trkpt>
      <trkpt lat="47.22821" lon="2.00587">
        <ele>95</ele>
        <time>2018-04-18T08:05:13Z</time>
      </trkpt>
      <trkpt lat="47.22801" lon="2.00602">
        <ele>94</ele>
        <time>2018-04-18T08:05:19Z</time>
      </trkpt>
      <trkpt lat="47.22797" lon="2.00597">
        <ele>94</ele>
        <time>2018-04-18T08:05:21Z</time>
      </trkpt>
      <trkpt lat="47.22796" lon="2.00563">
        <ele>95</ele>
        <time>2018-04-18T08:05:27Z</time>
      </trkpt>
      <trkpt lat="47.22792" lon="2.00551">
        <ele>95</ele>
        <time>2018-04-18T08:05:29Z</time>
      </trkpt>
      <trkpt lat="47.22782" lon="2.00515">
        <ele>95</ele>
        <time>2018-04-18T08:05:35Z</time>
      </trkpt>
      <trkpt lat="47.22788" lon="2.00433">
        <ele>95</ele>
        <time>2018-04-18T08:05:48Z</time>
      </trkpt>
      <trkpt lat="47.22791" lon="2.0039">
        <ele>94</ele>
        <time>2018-04-18T08:05:54Z</time>
      </trkpt>
      <trkpt lat="47.22791" lon="2.00383">
        <ele>94</ele>
        <time>2018-04-18T08:05:55Z</time>
      </trkpt>
      <trkpt lat="47.2279" lon="2.00363">
        <ele>94</ele>
        <time>2018-04-18T08:05:58Z</time>
      </trkpt>
      <trkpt lat="47.22789" lon="2.00357">
        <ele>94</ele>
        <time>2018-04-18T08:05:59Z</time>
      </trkpt>
      <trkpt lat="47.2278" lon="2.00329">
        <ele>94</ele>
        <time>2018-04-18T08:06:03Z</time>
      </trkpt>
      <trkpt lat="47.22764" lon="2.00287">
        <ele>93</ele>
        <time>2018-04-18T08:06:09Z</time>
      </trkpt>
      <trkpt lat="47.22755" lon="2.00267">
        <ele>93</ele>
        <time>2018-04-18T08:06:12Z</time>
      </trkpt>
      <trkpt lat="47.22733" lon="2.00188">
        <ele>94</ele>
        <time>2018-04-18T08:06:23Z</time>
      </trkpt>
      <trkpt lat="47.22726" lon="2.0015">
        <ele>95</ele>
        <time>2018-04-18T08:06:29Z</time>
      </trkpt>
      <trkpt lat="47.22726" lon="2.00137">
        <ele>95</ele>
        <time>2018-04-18T08:06:31Z</time>
      </trkpt>
      <trkpt lat="47.22729" lon="2.00124">
        <ele>95</ele>
        <time>2018-04-18T08:06:33Z</time>
      </trkpt>
      <trkpt lat="47.22733" lon="2.00111">
        <ele>95</ele>
        <time>2018-04-18T08:06:35Z</time>
      </trkpt>
      <trkpt lat="47.22734" lon="2.00098">
        <ele>95</ele>
        <time>2018-04-18T08:06:37Z</time>
      </trkpt>
      <trkpt lat="47.22731" lon="2.00085">
        <ele>95</ele>
        <time>2018-04-18T08:06:39Z</time>
      </trkpt>
      <trkpt lat="47.22722" lon="2.00075">
        <ele>95</ele>
        <time>2018-04-18T08:06:41Z</time>
      </trkpt>
      <trkpt lat="47.22668" lon="2.0005">
        <ele>94</ele>
        <time>2018-04-18T08:06:53Z</time>
      </trkpt>
      <trkpt lat="47.22629" lon="2.00028">
        <ele>94</ele>
        <time>2018-04-18T08:07:02Z</time>
      </trkpt>
      <trkpt lat="47.22619" lon="2.00016">
        <ele>94</ele>
        <time>2018-04-18T08:07:05Z</time>
      </trkpt>
      <trkpt lat="47.22618" lon="1.99994">
        <ele>93</ele>
        <time>2018-04-18T08:07:09Z</time>
      </trkpt>
      <trkpt lat="47.22634" lon="1.99937">
        <ele>93</ele>
        <time>2018-04-18T08:07:18Z</time>
      </trkpt>
      <trkpt lat="47.22636" lon="1.99923">
        <ele>93</ele>
        <time>2018-04-18T08:07:20Z</time>
      </trkpt>
      <trkpt lat="47.22636" lon="1.99909">
        <ele>93</ele>
        <time>2018-04-18T08:07:22Z</time>
      </trkpt>
      <trkpt lat="47.22634" lon="1.99881">
        <ele>93</ele>
        <time>2018-04-18T08:07:26Z</time>
      </trkpt>
      <trkpt lat="47.22617" lon="1.99808">
        <ele>94</ele>
        <time>2018-04-18T08:07:36Z</time>
      </trkpt>
      <trkpt lat="47.226" lon="1.9973">
        <ele>94</ele>
        <time>2018-04-18T08:07:47Z</time>
      </trkpt>
      <trkpt lat="47.22591" lon="1.99696">
        <ele>94</ele>
        <time>2018-04-18T08:07:52Z</time>
      </trkpt>
      <trkpt lat="47.22578" lon="1.99674">
        <ele>94</ele>
        <time>2018-04-18T08:07:56Z</time>
      </trkpt>
      <trkpt lat="47.22547" lon="1.99647">
        <ele>95</ele>
        <time>2018-04-18T08:08:03Z</time>
      </trkpt>
      <trkpt lat="47.22493" lon="1.99626">
        <ele>95</ele>
        <time>2018-04-18T08:08:14Z</time>
      </trkpt>
      <trkpt lat="47.22435" lon="1.99625">
        <ele>95</ele>
        <time>2018-04-18T08:08:25Z</time>
      </trkpt>
      <trkpt lat="47.22386" lon="1.99652">
        <ele>94</ele>
        <time>2018-04-18T08:08:37Z</time>
      </trkpt>
      <trkpt lat="47.22356" lon="1.99658">
        <ele>94</ele>
        <time>2018-04-18T08:08:44Z</time>
      </trkpt>
      <trkpt lat="47.22311" lon="1.99625">
        <ele>95</ele>
        <time>2018-04-18T08:08:54Z</time>
      </trkpt>
      <trkpt lat="47.22292" lon="1.99613">
        <ele>95</ele>
        <time>2018-04-18T08:08:58Z</time>
      </trkpt>
      <trkpt lat="47.22249" lon="1.99562">
        <ele>95</ele>
        <time>2018-04-18T08:09:09Z</time>
      </trkpt>
      <trkpt lat="47.22233" lon="1.99533">
        <ele>95</ele>
        <time>2018-04-18T08:09:14Z</time>
      </trkpt>
      <trkpt lat="47.22211" lon="1.99458">
        <ele>95</ele>
        <time>2018-04-18T08:09:27Z</time>
      </trkpt>
      <trkpt lat="47.22204" lon="1.99408">
        <ele>94</ele>
        <time>2018-04-18T08:09:34Z</time>
      </trkpt>
      <trkpt lat="47.22201" lon="1.99323">
        <ele>95</ele>
        <time>2018-04-18T08:09:45Z</time>
      </trkpt>
      <trkpt lat="47.22201" lon="1.99239">
        <ele>95</ele>
        <time>2018-04-18T08:09:56Z</time>
      </trkpt>
      <trkpt lat="47.22195" lon="1.99156">
        <ele>94</ele>
        <time>2018-04-18T08:10:07Z</time>
      </trkpt>
      <trkpt lat="47.22191" lon="1.99072">
        <ele>95</ele>
        <time>2018-04-18T08:10:18Z</time>
      </trkpt>
      <trkpt lat="47.2219" lon="1.98989">
        <ele>95</ele>
        <time>2018-04-18T08:10:30Z</time>
      </trkpt>
      <trkpt lat="47.22162" lon="1.98921">
        <ele>95</ele>
        <time>2018-04-18T08:10:46Z</time>
      </trkpt>
      <trkpt lat="47.22157" lon="1.98888">
        <ele>95</ele>
        <time>2018-04-18T08:10:54Z</time>
      </trkpt>
      <trkpt lat="47.22162" lon="1.98867">
        <ele>95</ele>
        <time>2018-04-18T08:10:59Z</time>
      </trkpt>
      <trkpt lat="47.22165" lon="1.98851">
        <ele>94</ele>
        <time>2018-04-18T08:11:02Z</time>
      </trkpt>
      <trkpt lat="47.22167" lon="1.98846">
        <ele>94</ele>
        <time>2018-04-18T08:11:03Z</time>
      </trkpt>
      <trkpt lat="47.22169" lon="1.98841">
        <ele>94</ele>
        <time>2018-04-18T08:11:04Z</time>
      </trkpt>
      <trkpt lat="47.22188" lon="1.98789">
        <ele>94</ele>
        <time>2018-04-18T08:11:13Z</time>
      </trkpt>
      <trkpt lat="47.22203" lon="1.98744">
        <ele>94</ele>
        <time>2018-04-18T08:11:21Z</time>
      </trkpt>
      <trkpt lat="47.22251" lon="1.98696">
        <ele>93</ele>
        <time>2018-04-18T08:11:33Z</time>
      </trkpt>
      <trkpt lat="47.22305" lon="1.98672">
        <ele>93</ele>
        <time>2018-04-18T08:11:44Z</time>
      </trkpt>
      <trkpt lat="47.22319" lon="1.98666">
        <ele>94</ele>
        <time>2018-04-18T08:11:47Z</time>
      </trkpt>
      <trkpt lat="47.22375" lon="1.98655">
        <ele>95</ele>
        <time>2018-04-18T08:11:58Z</time>
      </trkpt>
      <trkpt lat="47.22432" lon="1.98652">
        <ele>95</ele>
        <time>2018-04-18T08:12:09Z</time>
      </trkpt>
      <trkpt lat="47.22463" lon="1.98647">
        <ele>95</ele>
        <time>2018-04-18T08:12:15Z</time>
      </trkpt>
      <trkpt lat="47.22516" lon="1.9863">
        <ele>95</ele>
        <time>2018-04-18T08:12:25Z</time>
      </trkpt>
      <trkpt lat="47.22569" lon="1.98602">
        <ele>94</ele>
        <time>2018-04-18T08:12:35Z</time>
      </trkpt>
      <trkpt lat="47.22578" lon="1.98596">
        <ele>94</ele>
        <time>2018-04-18T08:12:37Z</time>
      </trkpt>
      <trkpt lat="47.22626" lon="1.98556">
        <ele>94</ele>
        <time>2018-04-18T08:12:47Z</time>
      </trkpt>
      <trkpt lat="47.22661" lon="1.9853">
        <ele>94</ele>
        <time>2018-04-18T08:12:54Z</time>
      </trkpt>
      <trkpt lat="47.22675" lon="1.98519">
        <ele>94</ele>
        <time>2018-04-18T08:12:57Z</time>
      </trkpt>
      <trkpt lat="47.22725" lon="1.98483">
        <ele>94</ele>
        <time>2018-04-18T08:13:07Z</time>
      </trkpt>
      <trkpt lat="47.22744" lon="1.98471">
        <ele>94</ele>
        <time>2018-04-18T08:13:10Z</time>
      </trkpt>
      <trkpt lat="47.22748" lon="1.9847">
        <ele>94</ele>
        <time>2018-04-18T08:13:12Z</time>
      </trkpt>
      <trkpt lat="47.22803" lon="1.98481">
        <ele>93</ele>
        <time>2018-04-18T08:13:24Z</time>
      </trkpt>
      <trkpt lat="47.22812" lon="1.98484">
        <ele>93</ele>
        <time>2018-04-18T08:13:26Z</time>
      </trkpt>
      <trkpt lat="47.22866" lon="1.98499">
        <ele>93</ele>
        <time>2018-04-18T08:13:37Z</time>
      </trkpt>
      <trkpt lat="47.22902" lon="1.98509">
        <ele>92</ele>
        <time>2018-04-18T08:13:44Z</time>
      </trkpt>
      <trkpt lat="47.22959" lon="1.98516">
        <ele>93</ele>
        <time>2018-04-18T08:13:55Z</time>
      </trkpt>
      <trkpt lat="47.22965" lon="1.98515">
        <ele>93</ele>
        <time>2018-04-18T08:13:56Z</time>
      </trkpt>
      <trkpt lat="47.22975" lon="1.98511">
        <ele>93</ele>
        <time>2018-04-18T08:13:58Z</time>
      </trkpt>
      <trkpt lat="47.22984" lon="1.98503">
        <ele>93</ele>
        <time>2018-04-18T08:14:00Z</time>
      </trkpt>
      <trkpt lat="47.22991" lon="1.98492">
        <ele>93</ele>
        <time>2018-04-18T08:14:02Z</time>
      </trkpt>
      <trkpt lat="47.22996" lon="1.98478">
        <ele>93</ele>
        <time>2018-04-18T08:14:04Z</time>
      </trkpt>
      <trkpt lat="47.23004" lon="1.98431">
        <ele>93</ele>
        <time>2018-04-18T08:14:10Z</time>
      </trkpt>
      <trkpt lat="47.23029" lon="1.9837">
        <ele>93</ele>
        <time>2018-04-18T08:14:19Z</time>
      </trkpt>
      <trkpt lat="47.23041" lon="1.98343">
        <ele>93</ele>
        <time>2018-04-18T08:14:23Z</time>
      </trkpt>
      <trkpt lat="47.23059" lon="1.98301">
        <ele>93</ele>
        <time>2018-04-18T08:14:29Z</time>
      </trkpt>
      <trkpt lat="47.2308" lon="1.98242">
        <ele>92</ele>
        <time>2018-04-18T08:14:37Z</time>
      </trkpt>
      <trkpt lat="47.23098" lon="1.98164">
        <ele>92</ele>
        <time>2018-04-18T08:14:47Z</time>
      </trkpt>
      <trkpt lat="47.23104" lon="1.98125">
        <ele>92</ele>
        <time>2018-04-18T08:14:52Z</time>
      </trkpt>
      <trkpt lat="47.23102" lon="1.98075">
        <ele>92</ele>
        <time>2018-04-18T08:14:58Z</time>
      </trkpt>
      <trkpt lat="47.23095" lon="1.9802">
        <ele>92</ele>
        <time>2018-04-18T08:15:05Z</time>
      </trkpt>
      <trkpt lat="47.23095" lon="1.97995">
        <ele>92</ele>
        <time>2018-04-18T08:15:08Z</time>
      </trkpt>
      <trkpt lat="47.231" lon="1.97964">
        <ele>92</ele>
        <time>2018-04-18T08:15:12Z</time>
      </trkpt>
      <trkpt lat="47.2313" lon="1.97895">
        <ele>92</ele>
        <time>2018-04-18T08:15:22Z</time>
      </trkpt>
      <trkpt lat="47.23161" lon="1.9783">
        <ele>92</ele>
        <time>2018-04-18T08:15:34Z</time>
      </trkpt>
      <trkpt lat="47.2316" lon="1.97826">
        <ele>92</ele>
        <time>2018-04-18T08:15:35Z</time>
      </trkpt>
      <trkpt lat="47.23134" lon="1.97806">
        <ele>92</ele>
        <time>2018-04-18T08:15:42Z</time>
      </trkpt>
      <trkpt lat="47.23126" lon="1.978">
        <ele>92</ele>
        <time>2018-04-18T08:15:44Z</time>
      </trkpt>
      <trkpt lat="47.23076" lon="1.97768">
        <ele>92</ele>
        <time>2018-04-18T08:15:56Z</time>
      </trkpt>
      <trkpt lat="47.23026" lon="1.97734">
        <ele>93</ele>
        <time>2018-04-18T08:16:08Z</time>
      </trkpt>
      <trkpt lat="47.22977" lon="1.977">
        <ele>93</ele>
        <time>2018-04-18T08:16:20Z</time>
      </trkpt>
      <trkpt lat="47.2295" lon="1.9768">
        <ele>93</ele>
        <time>2018-04-18T08:16:28Z</time>
      </trkpt>
      <trkpt lat="47.22976" lon="1.97618">
        <ele>93</ele>
        <time>2018-04-18T08:16:49Z</time>
      </trkpt>
      <trkpt lat="47.2302" lon="1.97567">
        <ele>94</ele>
        <time>2018-04-18T08:17:02Z</time>
      </trkpt>
      <trkpt lat="47.23043" lon="1.97542">
        <ele>94</ele>
        <time>2018-04-18T08:17:08Z</time>
      </trkpt>
      <trkpt lat="47.23094" lon="1.97512">
        <ele>94</ele>
        <time>2018-04-18T08:17:20Z</time>
      </trkpt>
      <trkpt lat="47.2313" lon="1.97489">
        <ele>94</ele>
        <time>2018-04-18T08:17:31Z</time>
      </trkpt>
      <trkpt lat="47.23165" lon="1.97425">
        <ele>94</ele>
        <time>2018-04-18T08:17:43Z</time>
      </trkpt>
      <trkpt lat="47.23203" lon="1.97363">
        <ele>93</ele>
        <time>2018-04-18T08:17:56Z</time>
      </trkpt>
      <trkpt lat="47.23248" lon="1.97317">
        <ele>94</ele>
        <time>2018-04-18T08:18:10Z</time>
      </trkpt>
      <trkpt lat="47.23277" lon="1.97306">
        <ele>94</ele>
        <time>2018-04-18T08:18:17Z</time>
      </trkpt>
      <trkpt lat="47.2329" lon="1.97299">
        <ele>93</ele>
        <time>2018-04-18T08:18:20Z</time>
      </trkpt>
      <trkpt lat="47.23297" lon="1.97292">
        <ele>93</ele>
        <time>2018-04-18T08:18:22Z</time>
      </trkpt>
      <trkpt lat="47.23339" lon="1.97233">
        <ele>94</ele>
        <time>2018-04-18T08:18:36Z</time>
      </trkpt>
      <trkpt lat="47.23352" lon="1.97213">
        <ele>94</ele>
        <time>2018-04-18T08:18:41Z</time>
      </trkpt>
      <trkpt lat="47.23354" lon="1.9721">
        <ele>94</ele>
        <time>2018-04-18T08:18:42Z</time>
      </trkpt>
      <trkpt lat="47.23365" lon="1.97193">
        <ele>94</ele>
        <time>2018-04-18T08:18:46Z</time>
      </trkpt>
      <trkpt lat="47.23389" lon="1.97124">
        <ele>94</ele>
        <time>2018-04-18T08:19:00Z</time>
      </trkpt>
      <trkpt lat="47.23395" lon="1.97075">
        <ele>93</ele>
        <time>2018-04-18T08:19:08Z</time>
      </trkpt>
      <trkpt lat="47.23396" lon="1.97057">
        <ele>93</ele>
        <time>2018-04-18T08:19:11Z</time>
      </trkpt>
      <trkpt lat="47.23391" lon="1.97004">
        <ele>93</ele>
        <time>2018-04-18T08:19:20Z</time>
      </trkpt>
      <trkpt lat="47.23394" lon="1.96921">
        <ele>93</ele>
        <time>2018-04-18T08:19:34Z</time>
      </trkpt>
      <trkpt lat="47.23393" lon="1.96886">
        <ele>93</ele>
        <time>2018-04-18T08:19:39Z</time>
      </trkpt>
      <trkpt lat="47.23391" lon="1.96866">
        <ele>93</ele>
        <time>2018-04-18T08:19:42Z</time>
      </trkpt>
      <trkpt lat="47.2339" lon="1.9686">
        <ele>93</ele>
        <time>2018-04-18T08:19:43Z</time>
      </trkpt>
      <trkpt lat="47.23388" lon="1.9684">
        <ele>93</ele>
        <time>2018-04-18T08:19:46Z</time>
      </trkpt>
      <trkpt lat="47.23386" lon="1.96834">
        <ele>93</ele>
        <time>2018-04-18T08:19:47Z</time>
      </trkpt>
      <trkpt lat="47.23378" lon="1.96809">
        <ele>93</ele>
        <time>2018-04-18T08:19:51Z</time>
      </trkpt>
      <trkpt lat="47.23373" lon="1.96796">
        <ele>93</ele>
        <time>2018-04-18T08:19:53Z</time>
      </trkpt>
      <trkpt lat="47.23395" lon="1.96735">
        <ele>94</ele>
        <time>2018-04-18T08:20:07Z</time>
      </trkpt>
      <trkpt lat="47.23449" lon="1.96715">
        <ele>94</ele>
        <time>2018-04-18T08:20:21Z</time>
      </trkpt>
      <trkpt lat="47.23465" lon="1.96715">
        <ele>94</ele>
        <time>2018-04-18T08:20:25Z</time>
      </trkpt>
      <trkpt lat="47.23484" lon="1.96729">
        <ele>94</ele>
        <time>2018-04-18T08:20:30Z</time>
      </trkpt>
      <trkpt lat="47.23531" lon="1.96699">
        <ele>94</ele>
        <time>2018-04-18T08:20:44Z</time>
      </trkpt>
      <trkpt lat="47.23561" lon="1.96634">
        <ele>94</ele>
        <time>2018-04-18T08:20:57Z</time>
      </trkpt>
      <trkpt lat="47.23593" lon="1.96567">
        <ele>93</ele>
        <time>2018-04-18T08:21:11Z</time>
      </trkpt>
      <trkpt lat="47.23602" lon="1.96558">
        <ele>93</ele>
        <time>2018-04-18T08:21:15Z</time>
      </trkpt>
      <trkpt lat="47.23617" lon="1.96549">
        <ele>93</ele>
        <time>2018-04-18T08:21:22Z</time>
      </trkpt>
      <trkpt lat="47.23621" lon="1.9655">
        <ele>93</ele>
        <time>2018-04-18T08:21:24Z</time>
      </trkpt>
      <trkpt lat="47.23624" lon="1.9655">
        <ele>93</ele>
        <time>2018-04-18T08:21:28Z</time>
      </trkpt>
      <trkpt lat="47.23625" lon="1.96553">
        <ele>93</ele>
        <time>2018-04-18T08:21:38Z</time>
      </trkpt>
      <trkpt lat="47.23625" lon="1.96553">
        <ele>93</ele>
        <time>2018-04-18T08:21:44Z</time>
      </trkpt>
      <trkpt lat="47.23625" lon="1.96553">
        <ele>93</ele>
        <time>2018-04-18T08:21:49Z</time>
      </trkpt>
      <trkpt lat="47.23625" lon="1.96553">
        <ele>93</ele>
        <time>2018-04-18T08:22:05Z</time>
      </trkpt>
      <trkpt lat="47.23635" lon="1.96553">
        <ele>93</ele>
        <time>2018-04-18T08:22:11Z</time>
      </trkpt>
      <trkpt lat="47.23653" lon="1.96549">
        <ele>93</ele>
        <time>2018-04-18T08:22:16Z</time>
      </trkpt>
      <trkpt lat="47.23658" lon="1.96541">
        <ele>93</ele>
        <time>2018-04-18T08:22:22Z</time>
      </trkpt>
      <trkpt lat="47.23657" lon="1.96541">
        <ele>93</ele>
        <time>2018-04-18T08:22:27Z</time>
      </trkpt>
      <trkpt lat="47.23658" lon="1.96541">
        <ele>93</ele>
        <time>2018-04-18T08:22:30Z</time>
      </trkpt>
      <trkpt lat="47.23658" lon="1.9654">
        <ele>93</ele>
        <time>2018-04-18T08:22:56Z</time>
      </trkpt>
      <trkpt lat="47.23658" lon="1.9654">
        <ele>93</ele>
        <time>2018-04-18T08:23:07Z</time>
      </trkpt>
      <trkpt lat="47.23658" lon="1.9654">
        <ele>93</ele>
        <time>2018-04-18T08:23:19Z</time>
      </trkpt>
      <trkpt lat="47.23659" lon="1.96539">
        <ele>93</ele>
        <time>2018-04-18T08:23:37Z</time>
      </trkpt>
      <trkpt lat="47.2366" lon="1.9654">
        <ele>93</ele>
        <time>2018-04-18T08:23:44Z</time>
      </trkpt>
      <trkpt lat="47.2366" lon="1.9654">
        <ele>93</ele>
        <time>2018-04-18T08:23:45Z</time>
      </trkpt>
      <trkpt lat="47.2366" lon="1.9654">
        <ele>93</ele>
        <time>2018-04-18T08:23:46Z</time>
      </trkpt>
      <trkpt lat="47.2366" lon="1.9654">
        <ele>93</ele>
        <time>2018-04-18T08:23:47Z</time>
      </trkpt>
      <trkpt lat="47.2366" lon="1.9654">
        <ele>93</ele>
        <time>2018-04-18T08:23:49Z</time>
      </trkpt>
      <trkpt lat="47.2366" lon="1.9654">
        <ele>93</ele>
        <time>2018-04-18T08:23:50Z</time>
      </trkpt>
      <trkpt lat="47.2366" lon="1.9654">
        <ele>93</ele>
        <time>2018-04-18T08:23:52Z</time>
      </trkpt>
      <trkpt lat="47.2366" lon="1.9654">
        <ele>93</ele>
        <time>2018-04-18T08:24:00Z</time>
      </trkpt>
      <trkpt lat="47.23661" lon="1.9654">
        <ele>93</ele>
        <time>2018-04-18T08:24:01Z</time>
      </trkpt>
      <trkpt lat="47.23661" lon="1.9654">
        <ele>93</ele>
        <time>2018-04-18T08:24:02Z</time>
      </trkpt>
      <trkpt lat="47.23662" lon="1.9654">
        <ele>93</ele>
        <time>2018-04-18T08:24:07Z</time>
      </trkpt>
      <trkpt lat="47.23662" lon="1.9654">
        <ele>93</ele>
        <time>2018-04-18T08:24:16Z</time>
      </trkpt>
      <trkpt lat="47.23662" lon="1.9654">
        <ele>93</ele>
        <time>2018-04-18T08:24:21Z</time>
      </trkpt>
      <trkpt lat="47.23662" lon="1.9654">
        <ele>93</ele>
        <time>2018-04-18T08:24:34Z</time>
      </trkpt>
      <trkpt lat="47.23662" lon="1.9654">
        <ele>93</ele>
        <time>2018-04-18T08:24:39Z</time>
      </trkpt>
      <trkpt lat="47.23662" lon="1.9654">
        <ele>93</ele>
        <time>2018-04-18T08:24:40Z</time>
      </trkpt>
      <trkpt lat="47.23662" lon="1.9654">
        <ele>93</ele>
        <time>2018-04-18T08:24:41Z</time>
      </trkpt>
      <trkpt lat="47.23662" lon="1.9654">
        <ele>93</ele>
        <time>2018-04-18T08:24:42Z</time>
      </trkpt>
      <trkpt lat="47.23662" lon="1.9654">
        <ele>93</ele>
        <time>2018-04-18T08:24:44Z</time>
      </trkpt>
      <trkpt lat="47.23662" lon="1.9654">
        <ele>93</ele>
        <time>2018-04-18T08:24:47Z</time>
      </trkpt>
      <trkpt lat="47.23662" lon="1.9654">
        <ele>93</ele>
        <time>2018-04-18T08:25:00Z</time>
      </trkpt>
      <trkpt lat="47.23661" lon="1.96538">
        <ele>93</ele>
        <time>2018-04-18T08:25:30Z</time>
      </trkpt>
      <trkpt lat="47.23661" lon="1.96538">
        <ele>93</ele>
        <time>2018-04-18T08:25:33Z</time>
      </trkpt>
      <trkpt lat="47.2366" lon="1.96538">
        <ele>93</ele>
        <time>2018-04-18T08:25:36Z</time>
      </trkpt>
      <trkpt lat="47.2366" lon="1.96538">
        <ele>93</ele>
        <time>2018-04-18T08:25:39Z</time>
      </trkpt>
      <trkpt lat="47.2366" lon="1.96538">
        <ele>93</ele>
        <time>2018-04-18T08:25:40Z</time>
      </trkpt>
      <trkpt lat="47.2366" lon="1.96538">
        <ele>93</ele>
        <time>2018-04-18T08:25:42Z</time>
      </trkpt>
      <trkpt lat="47.23661" lon="1.96538">
        <ele>93</ele>
        <time>2018-04-18T08:25:47Z</time>
      </trkpt>
      <trkpt lat="47.23661" lon="1.96538">
        <ele>93</ele>
        <time>2018-04-18T08:26:06Z</time>
      </trkpt>
      <trkpt lat="47.23661" lon="1.96538">
        <ele>93</ele>
        <time>2018-04-18T08:26:13Z</time>
      </trkpt>
      <trkpt lat="47.2366" lon="1.96538">
        <ele>93</ele>
        <time>2018-04-18T08:26:20Z</time>
      </trkpt>
      <trkpt lat="47.2366" lon="1.96538">
        <ele>93</ele>
        <time>2018-04-18T08:26:25Z</time>
      </trkpt>
      <trkpt lat="47.2366" lon="1.96538">
        <ele>93</ele>
        <time>2018-04-18T08:26:33Z</time>
      </trkpt>
      <trkpt lat="47.2366" lon="1.96537">
        <ele>93</ele>
        <time>2018-04-18T08:26:39Z</time>
      </trkpt>
      <trkpt lat="47.2366" lon="1.96538">
        <ele>93</ele>
        <time>2018-04-18T08:26:55Z</time>
      </trkpt>
      <trkpt lat="47.2366" lon="1.96538">
        <ele>93</ele>
        <time>2018-04-18T08:26:57Z</time>
      </trkpt>
      <trkpt lat="47.2366" lon="1.96538">
        <ele>93</ele>
        <time>2018-04-18T08:26:58Z</time>
      </trkpt>
      <trkpt lat="47.2366" lon="1.96538">
        <ele>93</ele>
        <time>2018-04-18T08:27:03Z</time>
      </trkpt>
      <trkpt lat="47.2366" lon="1.96538">
        <ele>93</ele>
        <time>2018-04-18T08:27:20Z</time>
      </trkpt>
      <trkpt lat="47.2366" lon="1.96537">
        <ele>93</ele>
        <time>2018-04-18T08:27:24Z</time>
      </trkpt>
      <trkpt lat="47.2366" lon="1.96537">
        <ele>93</ele>
        <time>2018-04-18T08:27:39Z</time>
      </trkpt>
      <trkpt lat="47.2366" lon="1.96537">
        <ele>93</ele>
        <time>2018-04-18T08:27:45Z</time>
      </trkpt>
      <trkpt lat="47.2366" lon="1.96537">
        <ele>93</ele>
        <time>2018-04-18T08:27:59Z</time>
      </trkpt>
      <trkpt lat="47.23661" lon="1.96536">
        <ele>93</ele>
        <time>2018-04-18T08:28:07Z</time>
      </trkpt>
      <trkpt lat="47.23664" lon="1.96541">
        <ele>93</ele>
        <time>2018-04-18T08:28:50Z</time>
      </trkpt>
      <trkpt lat="47.23659" lon="1.96544">
        <ele>93</ele>
        <time>2018-04-18T08:28:53Z</time>
      </trkpt>
      <trkpt lat="47.23653" lon="1.96547">
        <ele>93</ele>
        <time>2018-04-18T08:28:56Z</time>
      </trkpt>
      <trkpt lat="47.2365" lon="1.96547">
        <ele>93</ele>
        <time>2018-04-18T08:28:57Z</time>
      </trkpt>
      <trkpt lat="47.23648" lon="1.96547">
        <ele>93</ele>
        <time>2018-04-18T08:28:58Z</time>
      </trkpt>
      <trkpt lat="47.23645" lon="1.96547">
        <ele>93</ele>
        <time>2018-04-18T08:28:59Z</time>
      </trkpt>
      <trkpt lat="47.23636" lon="1.96548">
        <ele>93</ele>
        <time>2018-04-18T08:29:02Z</time>
      </trkpt>
      <trkpt lat="47.23634" lon="1.96548">
        <ele>93</ele>
        <time>2018-04-18T08:29:03Z</time>
      </trkpt>
      <trkpt lat="47.23631" lon="1.96547">
        <ele>93</ele>
        <time>2018-04-18T08:29:04Z</time>
      </trkpt>
      <trkpt lat="47.23629" lon="1.96547">
        <ele>93</ele>
        <time>2018-04-18T08:29:05Z</time>
      </trkpt>
      <trkpt lat="47.23625" lon="1.96545">
        <ele>93</ele>
        <time>2018-04-18T08:29:07Z</time>
      </trkpt>
      <trkpt lat="47.23624" lon="1.96542">
        <ele>93</ele>
        <time>2018-04-18T08:29:08Z</time>
      </trkpt>
      <trkpt lat="47.23623" lon="1.96541">
        <ele>93</ele>
        <time>2018-04-18T08:29:09Z</time>
      </trkpt>
      <trkpt lat="47.23621" lon="1.96538">
        <ele>93</ele>
        <time>2018-04-18T08:29:11Z</time>
      </trkpt>
      <trkpt lat="47.2362" lon="1.96536">
        <ele>93</ele>
        <time>2018-04-18T08:29:12Z</time>
      </trkpt>
    </trkseg>
  </trk>
</gpx>